sensor_id;sensor_type;location;lat;lon;timestamp;temperature;humidity
19847;DHT22;10084;50.518;8.588;2023-10-08T00:01:36;17.30;74.90
19847;DHT22;10084;50.518;8.588;2023-10-08T00:04:08;17.20;74.90
19847;DHT22;10084;50.518;8.588;2023-10-08T00:06:36;17.20;74.90
19847;DHT22;10084;50.518;8.588;2023-10-08T00:09:03;17.20;74.90
19847;DHT22;10084;50.518;8.588;2023-10-08T00:11:35;17.20;74.90
19847;DHT22;10084;50.518;8.588;2023-10-08T00:14:02;17.20;75.00
19847;DHT22;10084;50.518;8.588;2023-10-08T00:16:30;17.20;74.90
19847;DHT22;10084;50.518;8.588;2023-10-08T00:18:59;17.20;75.00
19847;DHT22;10084;50.518;8.588;2023-10-08T00:21:33;17.20;75.00
19847;DHT22;10084;50.518;8.588;2023-10-08T00:24:00;17.20;75.00
19847;DHT22;10084;50.518;8.588;2023-10-08T00:26:29;17.20;75.00
19847;DHT22;10084;50.518;8.588;2023-10-08T00:28:59;17.20;75.00
19847;DHT22;10084;50.518;8.588;2023-10-08T00:31:28;17.20;75.10
19847;DHT22;10084;50.518;8.588;2023-10-08T00:33:57;17.20;75.10
19847;DHT22;10084;50.518;8.588;2023-10-08T00:36:23;17.20;75.10
19847;DHT22;10084;50.518;8.588;2023-10-08T00:38:50;17.20;75.10
19847;DHT22;10084;50.518;8.588;2023-10-08T00:41:26;17.20;75.10
19847;DHT22;10084;50.518;8.588;2023-10-08T00:43:57;17.10;75.10
19847;DHT22;10084;50.518;8.588;2023-10-08T00:46:25;17.10;75.10
19847;DHT22;10084;50.518;8.588;2023-10-08T00:48:52;17.10;75.20
19847;DHT22;10084;50.518;8.588;2023-10-08T00:51:23;17.10;75.20
19847;DHT22;10084;50.518;8.588;2023-10-08T00:54:01;17.10;75.20
19847;DHT22;10084;50.518;8.588;2023-10-08T00:56:32;17.10;75.30
19847;DHT22;10084;50.518;8.588;2023-10-08T00:59:17;17.10;75.30
19847;DHT22;10084;50.518;8.588;2023-10-08T01:01:49;17.00;75.20
19847;DHT22;10084;50.518;8.588;2023-10-08T01:04:20;17.00;75.20
19847;DHT22;10084;50.518;8.588;2023-10-08T01:06:53;17.00;75.20
19847;DHT22;10084;50.518;8.588;2023-10-08T01:09:21;16.90;75.20
19847;DHT22;10084;50.518;8.588;2023-10-08T01:12:17;16.90;75.30
19847;DHT22;10084;50.518;8.588;2023-10-08T01:14:55;16.90;75.30
19847;DHT22;10084;50.518;8.588;2023-10-08T01:17:30;16.90;75.30
19847;DHT22;10084;50.518;8.588;2023-10-08T01:19:58;16.80;75.40
19847;DHT22;10084;50.518;8.588;2023-10-08T01:22:46;16.80;75.40
19847;DHT22;10084;50.518;8.588;2023-10-08T01:25:12;16.80;76.10
19847;DHT22;10084;50.518;8.588;2023-10-08T01:27:47;16.70;75.50
19847;DHT22;10084;50.518;8.588;2023-10-08T01:30:12;16.70;75.50
19847;DHT22;10084;50.518;8.588;2023-10-08T01:32:44;16.70;75.50
19847;DHT22;10084;50.518;8.588;2023-10-08T01:35:10;16.70;75.70
19847;DHT22;10084;50.518;8.588;2023-10-08T01:37:52;16.70;75.60
19847;DHT22;10084;50.518;8.588;2023-10-08T01:40:21;16.60;75.60
19847;DHT22;10084;50.518;8.588;2023-10-08T01:42:50;16.60;75.70
19847;DHT22;10084;50.518;8.588;2023-10-08T01:45:17;16.60;75.80
19847;DHT22;10084;50.518;8.588;2023-10-08T01:47:44;16.60;75.80
19847;DHT22;10084;50.518;8.588;2023-10-08T01:50:10;16.60;75.90
19847;DHT22;10084;50.518;8.588;2023-10-08T01:52:48;16.60;75.90
19847;DHT22;10084;50.518;8.588;2023-10-08T01:55:14;16.50;75.90
19847;DHT22;10084;50.518;8.588;2023-10-08T01:57:47;16.60;76.00
19847;DHT22;10084;50.518;8.588;2023-10-08T02:00:13;16.50;76.00
19847;DHT22;10084;50.518;8.588;2023-10-08T02:02:50;16.60;76.10
19847;DHT22;10084;50.518;8.588;2023-10-08T02:05:16;16.50;76.70
19847;DHT22;10084;50.518;8.588;2023-10-08T02:07:47;16.50;76.10
19847;DHT22;10084;50.518;8.588;2023-10-08T02:10:13;16.50;76.20
19847;DHT22;10084;50.518;8.588;2023-10-08T02:12:42;16.50;76.20
19847;DHT22;10084;50.518;8.588;2023-10-08T02:15:08;16.50;76.20
19847;DHT22;10084;50.518;8.588;2023-10-08T02:17:37;16.50;76.30
19847;DHT22;10084;50.518;8.588;2023-10-08T02:20:04;16.50;76.40
19847;DHT22;10084;50.518;8.588;2023-10-08T02:22:33;16.50;76.40
19847;DHT22;10084;50.518;8.588;2023-10-08T02:24:59;16.50;76.40
19847;DHT22;10084;50.518;8.588;2023-10-08T02:27:29;16.50;76.40
19847;DHT22;10084;50.518;8.588;2023-10-08T02:29:54;16.50;76.50
19847;DHT22;10084;50.518;8.588;2023-10-08T02:32:21;16.60;76.50
19847;DHT22;10084;50.518;8.588;2023-10-08T02:34:50;16.60;76.50
19847;DHT22;10084;50.518;8.588;2023-10-08T02:37:16;16.60;76.60
19847;DHT22;10084;50.518;8.588;2023-10-08T02:39:42;16.60;76.60
19847;DHT22;10084;50.518;8.588;2023-10-08T02:42:08;16.60;76.60
19847;DHT22;10084;50.518;8.588;2023-10-08T02:44:39;16.60;76.60
19847;DHT22;10084;50.518;8.588;2023-10-08T02:47:09;16.60;76.60
19847;DHT22;10084;50.518;8.588;2023-10-08T02:49:38;16.60;76.60
19847;DHT22;10084;50.518;8.588;2023-10-08T02:52:07;16.60;77.20
19847;DHT22;10084;50.518;8.588;2023-10-08T02:54:34;16.60;76.50
19847;DHT22;10084;50.518;8.588;2023-10-08T02:57:02;16.60;76.40
19847;DHT22;10084;50.518;8.588;2023-10-08T02:59:36;16.60;76.40
19847;DHT22;10084;50.518;8.588;2023-10-08T03:02:12;16.60;76.40
19847;DHT22;10084;50.518;8.588;2023-10-08T03:04:45;16.60;76.40
19847;DHT22;10084;50.518;8.588;2023-10-08T03:07:12;16.60;76.40
19847;DHT22;10084;50.518;8.588;2023-10-08T03:09:48;16.60;76.40
19847;DHT22;10084;50.518;8.588;2023-10-08T03:12:16;16.60;76.30
19847;DHT22;10084;50.518;8.588;2023-10-08T03:14:43;16.50;76.30
19847;DHT22;10084;50.518;8.588;2023-10-08T03:17:38;16.50;76.30
19847;DHT22;10084;50.518;8.588;2023-10-08T03:20:17;16.50;76.30
19847;DHT22;10084;50.518;8.588;2023-10-08T03:23:07;16.40;76.40
19847;DHT22;10084;50.518;8.588;2023-10-08T03:25:55;16.40;76.40
19847;DHT22;10084;50.518;8.588;2023-10-08T03:28:38;16.40;76.50
19847;DHT22;10084;50.518;8.588;2023-10-08T03:31:06;16.40;76.60
19847;DHT22;10084;50.518;8.588;2023-10-08T03:33:40;16.40;76.70
19847;DHT22;10084;50.518;8.588;2023-10-08T03:36:07;16.50;76.70
19847;DHT22;10084;50.518;8.588;2023-10-08T03:38:36;16.50;76.70
19847;DHT22;10084;50.518;8.588;2023-10-08T03:41:17;16.50;76.70
19847;DHT22;10084;50.518;8.588;2023-10-08T03:43:44;16.50;76.70
19847;DHT22;10084;50.518;8.588;2023-10-08T03:46:22;16.50;76.70
19847;DHT22;10084;50.518;8.588;2023-10-08T03:48:50;16.60;76.60
19847;DHT22;10084;50.518;8.588;2023-10-08T03:51:20;16.50;76.50
19847;DHT22;10084;50.518;8.588;2023-10-08T03:53:47;16.50;76.50
19847;DHT22;10084;50.518;8.588;2023-10-08T03:56:32;16.50;76.50
19847;DHT22;10084;50.518;8.588;2023-10-08T03:59:02;16.40;76.40
19847;DHT22;10084;50.518;8.588;2023-10-08T04:01:46;16.40;76.40
19847;DHT22;10084;50.518;8.588;2023-10-08T04:04:15;16.40;76.30
19847;DHT22;10084;50.518;8.588;2023-10-08T04:06:43;16.30;76.40
19847;DHT22;10084;50.518;8.588;2023-10-08T04:09:17;16.30;76.50
19847;DHT22;10084;50.518;8.588;2023-10-08T04:11:46;16.20;76.40
19847;DHT22;10084;50.518;8.588;2023-10-08T04:14:24;16.20;76.50
19847;DHT22;10084;50.518;8.588;2023-10-08T04:16:51;16.20;76.60
19847;DHT22;10084;50.518;8.588;2023-10-08T04:19:22;16.10;76.60
19847;DHT22;10084;50.518;8.588;2023-10-08T04:21:53;16.10;76.70
19847;DHT22;10084;50.518;8.588;2023-10-08T04:24:21;16.10;76.70
19847;DHT22;10084;50.518;8.588;2023-10-08T04:26:54;16.10;76.70
19847;DHT22;10084;50.518;8.588;2023-10-08T04:29:22;16.10;76.80
19847;DHT22;10084;50.518;8.588;2023-10-08T04:31:49;16.10;76.90
19847;DHT22;10084;50.518;8.588;2023-10-08T04:34:26;16.00;76.80
19847;DHT22;10084;50.518;8.588;2023-10-08T04:36:53;16.00;76.90
19847;DHT22;10084;50.518;8.588;2023-10-08T04:39:30;15.90;77.00
19847;DHT22;10084;50.518;8.588;2023-10-08T04:42:02;15.90;77.10
19847;DHT22;10084;50.518;8.588;2023-10-08T04:44:39;15.90;77.20
19847;DHT22;10084;50.518;8.588;2023-10-08T04:47:09;15.90;77.30
19847;DHT22;10084;50.518;8.588;2023-10-08T04:49:35;15.90;77.40
19847;DHT22;10084;50.518;8.588;2023-10-08T04:52:07;15.90;77.50
19847;DHT22;10084;50.518;8.588;2023-10-08T04:54:42;15.90;77.40
19847;DHT22;10084;50.518;8.588;2023-10-08T04:57:17;15.90;77.50
19847;DHT22;10084;50.518;8.588;2023-10-08T04:59:44;15.90;77.50
19847;DHT22;10084;50.518;8.588;2023-10-08T05:02:10;15.90;77.50
19847;DHT22;10084;50.518;8.588;2023-10-08T05:04:54;15.90;77.60
19847;DHT22;10084;50.518;8.588;2023-10-08T05:07:52;15.90;77.50
19847;DHT22;10084;50.518;8.588;2023-10-08T05:10:18;15.90;77.50
19847;DHT22;10084;50.518;8.588;2023-10-08T05:12:50;15.90;78.20
19847;DHT22;10084;50.518;8.588;2023-10-08T05:15:26;16.00;77.70
19847;DHT22;10084;50.518;8.588;2023-10-08T05:18:04;16.00;77.60
19847;DHT22;10084;50.518;8.588;2023-10-08T05:20:49;16.00;77.60
19847;DHT22;10084;50.518;8.588;2023-10-08T05:23:17;16.00;77.60
19847;DHT22;10084;50.518;8.588;2023-10-08T05:25:57;16.00;77.60
19847;DHT22;10084;50.518;8.588;2023-10-08T05:28:27;16.00;77.60
19847;DHT22;10084;50.518;8.588;2023-10-08T05:30:54;16.00;77.60
19847;DHT22;10084;50.518;8.588;2023-10-08T05:33:39;16.10;77.70
19847;DHT22;10084;50.518;8.588;2023-10-08T05:36:25;16.10;77.70
19847;DHT22;10084;50.518;8.588;2023-10-08T05:39:04;16.10;77.70
19847;DHT22;10084;50.518;8.588;2023-10-08T05:41:50;16.10;77.70
19847;DHT22;10084;50.518;8.588;2023-10-08T05:44:42;16.10;77.70
19847;DHT22;10084;50.518;8.588;2023-10-08T05:47:26;16.10;77.70
19847;DHT22;10084;50.518;8.588;2023-10-08T05:49:59;16.10;77.70
19847;DHT22;10084;50.518;8.588;2023-10-08T05:52:44;16.20;77.80
19847;DHT22;10084;50.518;8.588;2023-10-08T05:55:18;16.20;77.80
19847;DHT22;10084;50.518;8.588;2023-10-08T05:57:46;16.20;77.80
19847;DHT22;10084;50.518;8.588;2023-10-08T06:00:18;16.20;77.80
19847;DHT22;10084;50.518;8.588;2023-10-08T06:03:04;16.20;77.80
19847;DHT22;10084;50.518;8.588;2023-10-08T06:05:36;16.20;77.80
19847;DHT22;10084;50.518;8.588;2023-10-08T06:08:09;16.20;77.80
19847;DHT22;10084;50.518;8.588;2023-10-08T06:10:40;16.30;77.80
19847;DHT22;10084;50.518;8.588;2023-10-08T06:13:08;16.30;77.80
19847;DHT22;10084;50.518;8.588;2023-10-08T06:15:53;16.40;77.90
19847;DHT22;10084;50.518;8.588;2023-10-08T06:18:27;16.40;77.80
19847;DHT22;10084;50.518;8.588;2023-10-08T06:21:00;16.40;77.80
19847;DHT22;10084;50.518;8.588;2023-10-08T06:23:28;16.40;77.70
19847;DHT22;10084;50.518;8.588;2023-10-08T06:25:57;16.50;77.80
19847;DHT22;10084;50.518;8.588;2023-10-08T06:28:25;16.50;77.70
19847;DHT22;10084;50.518;8.588;2023-10-08T06:30:55;16.50;77.70
19847;DHT22;10084;50.518;8.588;2023-10-08T06:33:23;16.50;77.70
19847;DHT22;10084;50.518;8.588;2023-10-08T06:35:59;16.60;77.70
19847;DHT22;10084;50.518;8.588;2023-10-08T06:38:34;16.60;77.70
19847;DHT22;10084;50.518;8.588;2023-10-08T06:41:02;16.60;77.70
19847;DHT22;10084;50.518;8.588;2023-10-08T06:43:48;16.70;77.80
19847;DHT22;10084;50.518;8.588;2023-10-08T06:46:18;16.70;77.80
19847;DHT22;10084;50.518;8.588;2023-10-08T06:48:48;16.80;77.90
19847;DHT22;10084;50.518;8.588;2023-10-08T06:51:15;16.80;77.90
19847;DHT22;10084;50.518;8.588;2023-10-08T06:53:45;16.90;77.90
19847;DHT22;10084;50.518;8.588;2023-10-08T06:56:12;16.90;77.80
19847;DHT22;10084;50.518;8.588;2023-10-08T06:58:42;16.90;77.80
19847;DHT22;10084;50.518;8.588;2023-10-08T07:01:17;17.00;77.80
19847;DHT22;10084;50.518;8.588;2023-10-08T07:03:54;17.00;77.80
19847;DHT22;10084;50.518;8.588;2023-10-08T07:06:29;17.00;77.90
19847;DHT22;10084;50.518;8.588;2023-10-08T07:09:00;17.10;78.00
19847;DHT22;10084;50.518;8.588;2023-10-08T07:11:34;17.10;78.00
19847;DHT22;10084;50.518;8.588;2023-10-08T07:14:01;17.20;78.00
19847;DHT22;10084;50.518;8.588;2023-10-08T07:16:27;17.20;77.90
19847;DHT22;10084;50.518;8.588;2023-10-08T07:18:53;17.20;77.80
19847;DHT22;10084;50.518;8.588;2023-10-08T07:21:27;17.20;77.70
19847;DHT22;10084;50.518;8.588;2023-10-08T07:24:04;17.20;77.80
19847;DHT22;10084;50.518;8.588;2023-10-08T07:26:35;17.20;77.80
19847;DHT22;10084;50.518;8.588;2023-10-08T07:29:05;17.20;78.00
19847;DHT22;10084;50.518;8.588;2023-10-08T07:31:35;17.30;78.20
19847;DHT22;10084;50.518;8.588;2023-10-08T07:34:02;17.30;78.20
19847;DHT22;10084;50.518;8.588;2023-10-08T07:36:46;17.40;78.20
19847;DHT22;10084;50.518;8.588;2023-10-08T07:39:15;17.50;78.20
19847;DHT22;10084;50.518;8.588;2023-10-08T07:41:50;17.50;78.10
19847;DHT22;10084;50.518;8.588;2023-10-08T07:44:17;17.60;78.10
19847;DHT22;10084;50.518;8.588;2023-10-08T07:46:52;17.70;78.20
19847;DHT22;10084;50.518;8.588;2023-10-08T07:49:25;17.80;78.20
19847;DHT22;10084;50.518;8.588;2023-10-08T07:51:57;17.90;78.00
19847;DHT22;10084;50.518;8.588;2023-10-08T07:54:25;17.90;78.00
19847;DHT22;10084;50.518;8.588;2023-10-08T07:56:54;18.00;77.90
19847;DHT22;10084;50.518;8.588;2023-10-08T07:59:26;18.10;77.80
19847;DHT22;10084;50.518;8.588;2023-10-08T08:01:51;18.10;77.70
19847;DHT22;10084;50.518;8.588;2023-10-08T08:04:19;18.20;77.70
19847;DHT22;10084;50.518;8.588;2023-10-08T08:06:49;18.20;77.70
19847;DHT22;10084;50.518;8.588;2023-10-08T08:09:19;18.30;78.40
19847;DHT22;10084;50.518;8.588;2023-10-08T08:11:49;18.40;77.70
19847;DHT22;10084;50.518;8.588;2023-10-08T08:14:16;18.50;77.60
19847;DHT22;10084;50.518;8.588;2023-10-08T08:16:45;18.50;77.50
19847;DHT22;10084;50.518;8.588;2023-10-08T08:19:14;18.60;77.50
19847;DHT22;10084;50.518;8.588;2023-10-08T08:21:42;18.70;77.50
19847;DHT22;10084;50.518;8.588;2023-10-08T08:24:13;18.70;77.40
19847;DHT22;10084;50.518;8.588;2023-10-08T08:26:40;18.80;77.30
19847;DHT22;10084;50.518;8.588;2023-10-08T08:29:09;18.90;77.20
19847;DHT22;10084;50.518;8.588;2023-10-08T08:31:40;18.90;76.90
19847;DHT22;10084;50.518;8.588;2023-10-08T08:34:11;18.90;76.80
19847;DHT22;10084;50.518;8.588;2023-10-08T08:36:45;19.00;76.80
19847;DHT22;10084;50.518;8.588;2023-10-08T08:39:15;19.00;76.80
19847;DHT22;10084;50.518;8.588;2023-10-08T08:41:59;19.00;76.70
19847;DHT22;10084;50.518;8.588;2023-10-08T08:44:27;19.00;76.50
19847;DHT22;10084;50.518;8.588;2023-10-08T08:46:57;19.00;76.40
19847;DHT22;10084;50.518;8.588;2023-10-08T08:49:24;19.10;76.40
19847;DHT22;10084;50.518;8.588;2023-10-08T08:51:52;19.10;76.40
19847;DHT22;10084;50.518;8.588;2023-10-08T08:54:21;19.10;76.40
19847;DHT22;10084;50.518;8.588;2023-10-08T08:56:47;19.10;76.30
19847;DHT22;10084;50.518;8.588;2023-10-08T08:59:14;19.20;76.30
19847;DHT22;10084;50.518;8.588;2023-10-08T09:01:43;19.30;76.30
19847;DHT22;10084;50.518;8.588;2023-10-08T09:04:10;19.30;76.20
19847;DHT22;10084;50.518;8.588;2023-10-08T09:06:37;19.40;76.00
19847;DHT22;10084;50.518;8.588;2023-10-08T09:09:06;19.40;75.90
19847;DHT22;10084;50.518;8.588;2023-10-08T09:11:53;19.40;75.90
19847;DHT22;10084;50.518;8.588;2023-10-08T09:14:22;19.50;75.90
19847;DHT22;10084;50.518;8.588;2023-10-08T09:16:52;19.60;76.00
19847;DHT22;10084;50.518;8.588;2023-10-08T09:19:17;19.70;76.00
19847;DHT22;10084;50.518;8.588;2023-10-08T09:22:07;19.80;76.00
19847;DHT22;10084;50.518;8.588;2023-10-08T09:24:34;19.90;75.70
19847;DHT22;10084;50.518;8.588;2023-10-08T09:27:03;20.10;75.50
19847;DHT22;10084;50.518;8.588;2023-10-08T09:29:29;20.10;75.40
19847;DHT22;10084;50.518;8.588;2023-10-08T09:31:56;20.20;75.30
19847;DHT22;10084;50.518;8.588;2023-10-08T09:34:26;20.20;75.20
19847;DHT22;10084;50.518;8.588;2023-10-08T09:36:53;20.30;75.10
19847;DHT22;10084;50.518;8.588;2023-10-08T09:39:20;20.40;75.10
19847;DHT22;10084;50.518;8.588;2023-10-08T09:41:54;20.50;75.30
19847;DHT22;10084;50.518;8.588;2023-10-08T09:44:22;20.90;76.20
19847;DHT22;10084;50.518;8.588;2023-10-08T09:47:08;21.10;75.60
19847;DHT22;10084;50.518;8.588;2023-10-08T09:49:41;21.30;74.80
19847;DHT22;10084;50.518;8.588;2023-10-08T09:52:08;21.30;74.30
19847;DHT22;10084;50.518;8.588;2023-10-08T09:54:52;21.30;73.90
19847;DHT22;10084;50.518;8.588;2023-10-08T09:57:20;21.30;73.70
19847;DHT22;10084;50.518;8.588;2023-10-08T09:59:48;21.30;73.60
19847;DHT22;10084;50.518;8.588;2023-10-08T10:02:15;21.20;73.40
19847;DHT22;10084;50.518;8.588;2023-10-08T10:04:43;21.20;73.20
19847;DHT22;10084;50.518;8.588;2023-10-08T10:07:11;21.20;73.20
19847;DHT22;10084;50.518;8.588;2023-10-08T10:09:45;21.20;73.20
19847;DHT22;10084;50.518;8.588;2023-10-08T10:12:12;21.30;73.30
19847;DHT22;10084;50.518;8.588;2023-10-08T10:14:45;21.30;73.20
19847;DHT22;10084;50.518;8.588;2023-10-08T10:17:17;21.40;73.30
19847;DHT22;10084;50.518;8.588;2023-10-08T10:19:56;21.50;73.30
19847;DHT22;10084;50.518;8.588;2023-10-08T10:22:35;21.70;73.40
19847;DHT22;10084;50.518;8.588;2023-10-08T10:25:04;21.90;73.20
19847;DHT22;10084;50.518;8.588;2023-10-08T10:30:21;22.10;72.30
19847;DHT22;10084;50.518;8.588;2023-10-08T10:32:52;22.10;72.10
19847;DHT22;10084;50.518;8.588;2023-10-08T10:35:17;22.00;71.80
19847;DHT22;10084;50.518;8.588;2023-10-08T10:37:46;22.00;71.70
19847;DHT22;10084;50.518;8.588;2023-10-08T10:40:24;21.90;71.50
19847;DHT22;10084;50.518;8.588;2023-10-08T10:43:10;21.90;71.50
19847;DHT22;10084;50.518;8.588;2023-10-08T10:45:36;21.80;71.40
19847;DHT22;10084;50.518;8.588;2023-10-08T10:48:05;21.70;71.20
19847;DHT22;10084;50.518;8.588;2023-10-08T10:50:50;21.70;71.10
19847;DHT22;10084;50.518;8.588;2023-10-08T10:53:34;21.50;71.70
19847;DHT22;10084;50.518;8.588;2023-10-08T10:56:12;21.40;71.10
19847;DHT22;10084;50.518;8.588;2023-10-08T10:58:47;21.30;71.20
19847;DHT22;10084;50.518;8.588;2023-10-08T11:01:23;21.30;71.30
19847;DHT22;10084;50.518;8.588;2023-10-08T11:03:52;21.20;71.30
19847;DHT22;10084;50.518;8.588;2023-10-08T11:06:19;21.20;71.20
19847;DHT22;10084;50.518;8.588;2023-10-08T11:08:52;21.10;71.10
19847;DHT22;10084;50.518;8.588;2023-10-08T11:11:19;21.00;70.90
19847;DHT22;10084;50.518;8.588;2023-10-08T11:13:59;20.90;70.80
19847;DHT22;10084;50.518;8.588;2023-10-08T11:16:28;20.70;70.70
19847;DHT22;10084;50.518;8.588;2023-10-08T11:18:56;20.60;70.80
19847;DHT22;10084;50.518;8.588;2023-10-08T11:21:31;20.50;70.90
19847;DHT22;10084;50.518;8.588;2023-10-08T11:23:59;20.30;70.90
19847;DHT22;10084;50.518;8.588;2023-10-08T11:26:26;20.20;70.90
19847;DHT22;10084;50.518;8.588;2023-10-08T11:29:05;20.10;71.00
19847;DHT22;10084;50.518;8.588;2023-10-08T11:31:32;20.00;71.20
19847;DHT22;10084;50.518;8.588;2023-10-08T11:34:02;20.00;71.40
19847;DHT22;10084;50.518;8.588;2023-10-08T11:36:35;20.00;71.80
19847;DHT22;10084;50.518;8.588;2023-10-08T11:39:14;20.10;72.30
19847;DHT22;10084;50.518;8.588;2023-10-08T11:42:00;20.20;72.60
19847;DHT22;10084;50.518;8.588;2023-10-08T11:44:45;20.50;72.80
19847;DHT22;10084;50.518;8.588;2023-10-08T11:47:12;20.70;72.80
19847;DHT22;10084;50.518;8.588;2023-10-08T11:49:40;20.90;72.80
19847;DHT22;10084;50.518;8.588;2023-10-08T11:52:15;21.10;72.60
19847;DHT22;10084;50.518;8.588;2023-10-08T11:54:42;21.30;72.00
19847;DHT22;10084;50.518;8.588;2023-10-08T11:57:08;21.30;71.50
19847;DHT22;10084;50.518;8.588;2023-10-08T11:59:35;21.40;71.20
19847;DHT22;10084;50.518;8.588;2023-10-08T12:02:06;21.40;70.90
19847;DHT22;10084;50.518;8.588;2023-10-08T12:04:32;21.40;70.50
19847;DHT22;10084;50.518;8.588;2023-10-08T12:06:58;21.40;70.40
19847;DHT22;10084;50.518;8.588;2023-10-08T12:09:28;21.30;70.20
19847;DHT22;10084;50.518;8.588;2023-10-08T12:11:54;21.20;70.10
19847;DHT22;10084;50.518;8.588;2023-10-08T12:14:22;21.20;70.00
19847;DHT22;10084;50.518;8.588;2023-10-08T12:16:52;21.10;69.90
19847;DHT22;10084;50.518;8.588;2023-10-08T12:19:17;21.10;69.90
19847;DHT22;10084;50.518;8.588;2023-10-08T12:21:44;21.10;69.90
19847;DHT22;10084;50.518;8.588;2023-10-08T12:24:12;21.10;69.70
19847;DHT22;10084;50.518;8.588;2023-10-08T12:26:38;21.10;69.60
19847;DHT22;10084;50.518;8.588;2023-10-08T12:29:14;21.00;69.30
19847;DHT22;10084;50.518;8.588;2023-10-08T12:31:42;20.90;69.10
19847;DHT22;10084;50.518;8.588;2023-10-08T12:34:13;20.80;68.90
19847;DHT22;10084;50.518;8.588;2023-10-08T12:36:39;20.70;68.90
19847;DHT22;10084;50.518;8.588;2023-10-08T12:39:05;20.60;68.80
19847;DHT22;10084;50.518;8.588;2023-10-08T12:41:41;20.50;68.90
19847;DHT22;10084;50.518;8.588;2023-10-08T12:44:06;20.40;68.80
19847;DHT22;10084;50.518;8.588;2023-10-08T12:46:34;20.30;68.80
19847;DHT22;10084;50.518;8.588;2023-10-08T12:49:00;20.20;68.80
19847;DHT22;10084;50.518;8.588;2023-10-08T12:51:28;20.00;68.70
19847;DHT22;10084;50.518;8.588;2023-10-08T12:53:57;19.90;68.80
19847;DHT22;10084;50.518;8.588;2023-10-08T12:56:32;19.80;68.90
19847;DHT22;10084;50.518;8.588;2023-10-08T12:59:02;19.70;69.00
19847;DHT22;10084;50.518;8.588;2023-10-08T13:01:33;19.70;69.10
19847;DHT22;10084;50.518;8.588;2023-10-08T13:04:02;19.60;69.20
19847;DHT22;10084;50.518;8.588;2023-10-08T13:06:34;19.60;69.40
19847;DHT22;10084;50.518;8.588;2023-10-08T13:09:03;19.70;69.50
19847;DHT22;10084;50.518;8.588;2023-10-08T13:11:35;19.70;69.40
19847;DHT22;10084;50.518;8.588;2023-10-08T13:14:00;19.70;69.30
19847;DHT22;10084;50.518;8.588;2023-10-08T13:16:28;19.80;69.30
19847;DHT22;10084;50.518;8.588;2023-10-08T13:18:58;19.80;69.20
19847;DHT22;10084;50.518;8.588;2023-10-08T13:21:27;19.80;69.20
19847;DHT22;10084;50.518;8.588;2023-10-08T13:23:57;19.80;69.10
19847;DHT22;10084;50.518;8.588;2023-10-08T13:26:24;19.90;69.00
19847;DHT22;10084;50.518;8.588;2023-10-08T13:28:50;19.90;68.90
19847;DHT22;10084;50.518;8.588;2023-10-08T13:31:16;19.90;68.80
19847;DHT22;10084;50.518;8.588;2023-10-08T13:33:43;19.80;68.70
19847;DHT22;10084;50.518;8.588;2023-10-08T13:36:11;19.80;68.70
19847;DHT22;10084;50.518;8.588;2023-10-08T13:38:39;19.80;68.70
19847;DHT22;10084;50.518;8.588;2023-10-08T13:41:07;19.70;68.30
19847;DHT22;10084;50.518;8.588;2023-10-08T13:43:48;19.50;68.20
19847;DHT22;10084;50.518;8.588;2023-10-08T13:46:15;19.30;68.50
19847;DHT22;10084;50.518;8.588;2023-10-08T13:48:47;19.10;68.60
19847;DHT22;10084;50.518;8.588;2023-10-08T13:51:20;19.10;68.90
19847;DHT22;10084;50.518;8.588;2023-10-08T13:53:50;19.00;69.10
19847;DHT22;10084;50.518;8.588;2023-10-08T13:56:25;19.10;69.20
19847;DHT22;10084;50.518;8.588;2023-10-08T13:58:53;19.10;69.30
19847;DHT22;10084;50.518;8.588;2023-10-08T14:01:28;19.10;69.20
19847;DHT22;10084;50.518;8.588;2023-10-08T14:03:54;19.10;69.20
19847;DHT22;10084;50.518;8.588;2023-10-08T14:06:29;19.10;69.20
19847;DHT22;10084;50.518;8.588;2023-10-08T14:08:55;19.10;69.10
19847;DHT22;10084;50.518;8.588;2023-10-08T14:11:21;19.20;69.10
19847;DHT22;10084;50.518;8.588;2023-10-08T14:13:53;19.20;69.00
19847;DHT22;10084;50.518;8.588;2023-10-08T14:16:19;19.10;68.90
19847;DHT22;10084;50.518;8.588;2023-10-08T14:18:50;19.10;68.90
19847;DHT22;10084;50.518;8.588;2023-10-08T14:21:20;19.10;68.80
19847;DHT22;10084;50.518;8.588;2023-10-08T14:23:52;19.00;68.80
19847;DHT22;10084;50.518;8.588;2023-10-08T14:26:18;19.00;68.80
19847;DHT22;10084;50.518;8.588;2023-10-08T14:28:48;18.90;68.80
19847;DHT22;10084;50.518;8.588;2023-10-08T14:31:24;18.90;68.80
19847;DHT22;10084;50.518;8.588;2023-10-08T14:33:52;18.80;68.90
19847;DHT22;10084;50.518;8.588;2023-10-08T14:36:23;18.80;68.80
19847;DHT22;10084;50.518;8.588;2023-10-08T14:39:07;18.70;68.90
19847;DHT22;10084;50.518;8.588;2023-10-08T14:41:52;18.60;68.90
19847;DHT22;10084;50.518;8.588;2023-10-08T14:44:36;18.50;68.80
19847;DHT22;10084;50.518;8.588;2023-10-08T14:47:04;18.40;68.90
19847;DHT22;10084;50.518;8.588;2023-10-08T14:49:31;18.40;68.90
19847;DHT22;10084;50.518;8.588;2023-10-08T14:51:58;18.30;69.00
19847;DHT22;10084;50.518;8.588;2023-10-08T14:54:24;18.30;69.00
19847;DHT22;10084;50.518;8.588;2023-10-08T14:56:50;18.20;69.00
19847;DHT22;10084;50.518;8.588;2023-10-08T14:59:17;18.20;69.10
19847;DHT22;10084;50.518;8.588;2023-10-08T15:01:46;18.10;69.10
19847;DHT22;10084;50.518;8.588;2023-10-08T15:04:13;18.10;69.20
19847;DHT22;10084;50.518;8.588;2023-10-08T15:06:39;18.10;69.20
19847;DHT22;10084;50.518;8.588;2023-10-08T15:09:07;18.10;69.30
19847;DHT22;10084;50.518;8.588;2023-10-08T15:11:34;18.00;69.30
19847;DHT22;10084;50.518;8.588;2023-10-08T15:14:02;18.00;69.30
19847;DHT22;10084;50.518;8.588;2023-10-08T15:16:38;18.00;69.40
19847;DHT22;10084;50.518;8.588;2023-10-08T15:19:05;18.00;69.40
19847;DHT22;10084;50.518;8.588;2023-10-08T15:21:31;18.00;69.50
19847;DHT22;10084;50.518;8.588;2023-10-08T15:24:00;17.90;69.50
19847;DHT22;10084;50.518;8.588;2023-10-08T15:26:32;17.90;69.50
19847;DHT22;10084;50.518;8.588;2023-10-08T15:28:58;17.90;69.50
19847;DHT22;10084;50.518;8.588;2023-10-08T15:31:23;17.90;69.60
19847;DHT22;10084;50.518;8.588;2023-10-08T15:33:50;17.90;69.60
19847;DHT22;10084;50.518;8.588;2023-10-08T15:36:16;17.90;69.60
19847;DHT22;10084;50.518;8.588;2023-10-08T15:38:42;17.90;69.60
19847;DHT22;10084;50.518;8.588;2023-10-08T15:41:07;17.90;69.60
19847;DHT22;10084;50.518;8.588;2023-10-08T15:43:35;17.80;69.50
19847;DHT22;10084;50.518;8.588;2023-10-08T15:46:01;17.80;69.60
19847;DHT22;10084;50.518;8.588;2023-10-08T15:48:27;17.80;69.60
19847;DHT22;10084;50.518;8.588;2023-10-08T15:50:54;17.80;69.70
19847;DHT22;10084;50.518;8.588;2023-10-08T15:53:20;17.80;69.80
19847;DHT22;10084;50.518;8.588;2023-10-08T15:55:45;17.80;69.80
19847;DHT22;10084;50.518;8.588;2023-10-08T15:58:12;17.80;69.80